Evansville, AR (72729)

11:12 AM CST on February 27, 2017 (GMT -0600)
Luginbuel Farm Airport | | Change Station

Elev 1425 ft 35.93 °N, 94.42 °W | Updated 13 minutes ago

Mostly Cloudy
Mostly Cloudy
57.8 °F
Feels Like 57.8 °F
N
18.0
Wind Variable Wind from SSE
Gusts 25.0 mph

Today
High -- | Low -- °F
--% Chance of Precip.
Yesterday
High -- | Low -- °F
Precip. -- in
Pressure 30.02 in
Visibility 4.0 miles
Clouds Scattered Clouds 3500 ft
Mostly Cloudy 5000 ft
Overcast 7000 ft
Dew Point 48 °F
Humidity 69%
Rainfall 0.00 in
Snow Depth Not available.
6:50 AM 6:11 PM
New Moon, 1% visible
METAR KFYV 271653Z 13008KT 4SM VCTS RA SCT035 BKN050 OVC070 14/08 A3002 RMK AO2 RAB50 SLP164 P0001 T01440083
Pressure 30.02 in
Visibility 4.0 miles
Clouds Scattered Clouds 3500 ft
Mostly Cloudy 5000 ft
Overcast 7000 ft
Dew Point 48 °F
Humidity 69%
Rainfall 0.00 in
Snow Depth Not available.
6:50 AM 6:11 PM
New Moon, 1% visible
METAR KFYV 271653Z 13008KT 4SM VCTS RA SCT035 BKN050 OVC070 14/08 A3002 RMK AO2 RAB50 SLP164 P0001 T01440083

Get Your Daily Forecast Email!

Thanks for signing up!

Be on the lookout for a verification email in your inbox.

You'll start receiving the daily forecast at 8 AM.

×

10-Day Weather Forecast

Almanac

Astronomy

Feb. 27, 2017 Rise Set
Actual Time
Civil Twilight
Nautical Twilight
Astronomical Twilight
Moon
Length of Visible Light
Length of Day
Tomorrow will be .
, % of the Moon is Illuminated

Today's Extremes

State Highs State Lows

Community

WunderPhotos

Upload Photos

1,962,540 photos uploaded!

WunderBlog® & News

Nearby

Air Quality

  Air Quality AQ Index Pollutant
Not available.

Snow Depth

Station Depth Elevation

Earthquake Activity

City Distance Mag. Time & Date
Minimum magnitude displayed is 2.5.

Coastal Water Temperatures

Place Temperature

Stations

Nearby Weather Stations

Station Location Temp. Windchill Dew Point Humidity Wind Precip. Elev Updated Type
                   

Watches & Warnings

There are currently no watches in effect.